sensor_id;sensor_type;location;lat;lon;timestamp;P1;durP1;ratioP1;P2;durP2;ratioP2
59649;SDS011;46162;57.568;25.814;2022-11-15T00:02:41;6.40;;;2.60;;
59649;SDS011;46162;57.568;25.814;2022-11-15T00:05:29;6.45;;;2.03;;
59649;SDS011;46162;57.568;25.814;2022-11-15T00:08:16;5.82;;;1.50;;
59649;SDS011;46162;57.568;25.814;2022-11-15T00:11:04;5.45;;;1.70;;
59649;SDS011;46162;57.568;25.814;2022-11-15T00:13:54;4.28;;;1.33;;
59649;SDS011;46162;57.568;25.814;2022-11-15T00:16:41;4.38;;;1.55;;
59649;SDS011;46162;57.568;25.814;2022-11-15T00:19:28;4.30;;;1.40;;
59649;SDS011;46162;57.568;25.814;2022-11-15T00:22:16;7.28;;;1.95;;
59649;SDS011;46162;57.568;25.814;2022-11-15T00:25:03;4.18;;;1.17;;
59649;SDS011;46162;57.568;25.814;2022-11-15T00:27:54;4.45;;;1.45;;
59649;SDS011;46162;57.568;25.814;2022-11-15T00:30:44;4.28;;;1.30;;
59649;SDS011;46162;57.568;25.814;2022-11-15T00:33:31;7.03;;;1.23;;
59649;SDS011;46162;57.568;25.814;2022-11-15T00:36:19;4.63;;;1.35;;
59649;SDS011;46162;57.568;25.814;2022-11-15T00:39:06;4.63;;;1.20;;
59649;SDS011;46162;57.568;25.814;2022-11-15T00:41:53;4.65;;;1.30;;
59649;SDS011;46162;57.568;25.814;2022-11-15T00:44:40;5.55;;;1.58;;
59649;SDS011;46162;57.568;25.814;2022-11-15T00:47:29;4.40;;;1.05;;
59649;SDS011;46162;57.568;25.814;2022-11-15T00:50:17;3.80;;;1.25;;
59649;SDS011;46162;57.568;25.814;2022-11-15T00:53:04;6.38;;;1.35;;
59649;SDS011;46162;57.568;25.814;2022-11-15T00:55:51;3.53;;;1.20;;
59649;SDS011;46162;57.568;25.814;2022-11-15T00:58:38;4.38;;;1.50;;
59649;SDS011;46162;57.568;25.814;2022-11-15T01:01:26;4.47;;;1.20;;
59649;SDS011;46162;57.568;25.814;2022-11-15T01:04:15;3.20;;;1.00;;
59649;SDS011;46162;57.568;25.814;2022-11-15T01:07:02;5.38;;;1.17;;
59649;SDS011;46162;57.568;25.814;2022-11-15T01:09:50;4.65;;;1.38;;
59649;SDS011;46162;57.568;25.814;2022-11-15T01:12:37;4.05;;;1.00;;
59649;SDS011;46162;57.568;25.814;2022-11-15T01:15:24;5.05;;;1.33;;
59649;SDS011;46162;57.568;25.814;2022-11-15T01:18:12;4.18;;;1.30;;
59649;SDS011;46162;57.568;25.814;2022-11-15T01:21:00;3.75;;;1.02;;
59649;SDS011;46162;57.568;25.814;2022-11-15T01:23:52;8.38;;;1.40;;
59649;SDS011;46162;57.568;25.814;2022-11-15T01:26:40;4.85;;;1.25;;
59649;SDS011;46162;57.568;25.814;2022-11-15T01:29:27;6.35;;;1.60;;
59649;SDS011;46162;57.568;25.814;2022-11-15T01:32:14;3.72;;;0.90;;
59649;SDS011;46162;57.568;25.814;2022-11-15T01:35:03;5.78;;;1.20;;
59649;SDS011;46162;57.568;25.814;2022-11-15T01:37:51;6.25;;;1.30;;
59649;SDS011;46162;57.568;25.814;2022-11-15T01:40:39;6.50;;;1.63;;
59649;SDS011;46162;57.568;25.814;2022-11-15T01:43:28;6.13;;;1.73;;
59649;SDS011;46162;57.568;25.814;2022-11-15T01:46:24;5.35;;;1.20;;
59649;SDS011;46162;57.568;25.814;2022-11-15T01:49:15;5.43;;;1.30;;
59649;SDS011;46162;57.568;25.814;2022-11-15T01:52:06;5.13;;;2.08;;
59649;SDS011;46162;57.568;25.814;2022-11-15T01:55:01;4.07;;;1.35;;
59649;SDS011;46162;57.568;25.814;2022-11-15T01:57:53;6.05;;;1.17;;
59649;SDS011;46162;57.568;25.814;2022-11-15T02:03:34;4.10;;;1.02;;
59649;SDS011;46162;57.568;25.814;2022-11-15T02:06:26;5.82;;;1.50;;
59649;SDS011;46162;57.568;25.814;2022-11-15T02:09:14;4.28;;;1.23;;
59649;SDS011;46162;57.568;25.814;2022-11-15T02:12:03;4.40;;;1.25;;
59649;SDS011;46162;57.568;25.814;2022-11-15T02:14:53;4.80;;;1.83;;
59649;SDS011;46162;57.568;25.814;2022-11-15T02:17:50;6.28;;;1.70;;
59649;SDS011;46162;57.568;25.814;2022-11-15T02:20:58;3.80;;;1.50;;
59649;SDS011;46162;57.568;25.814;2022-11-15T02:24:21;4.80;;;1.30;;
59649;SDS011;46162;57.568;25.814;2022-11-15T02:27:46;4.03;;;1.15;;
59649;SDS011;46162;57.568;25.814;2022-11-15T02:30:56;4.38;;;1.27;;
59649;SDS011;46162;57.568;25.814;2022-11-15T02:33:52;4.82;;;1.60;;
59649;SDS011;46162;57.568;25.814;2022-11-15T02:36:49;4.05;;;1.25;;
59649;SDS011;46162;57.568;25.814;2022-11-15T02:39:49;3.85;;;1.15;;
59649;SDS011;46162;57.568;25.814;2022-11-15T02:42:39;4.50;;;0.98;;
59649;SDS011;46162;57.568;25.814;2022-11-15T02:45:53;5.60;;;0.88;;
59649;SDS011;46162;57.568;25.814;2022-11-15T02:48:48;3.95;;;1.02;;
59649;SDS011;46162;57.568;25.814;2022-11-15T02:51:35;4.22;;;1.30;;
59649;SDS011;46162;57.568;25.814;2022-11-15T02:54:23;5.53;;;1.75;;
59649;SDS011;46162;57.568;25.814;2022-11-15T02:57:14;4.85;;;1.45;;
59649;SDS011;46162;57.568;25.814;2022-11-15T03:00:06;4.90;;;1.42;;
59649;SDS011;46162;57.568;25.814;2022-11-15T03:06:12;5.10;;;1.52;;
59649;SDS011;46162;57.568;25.814;2022-11-15T03:09:07;3.47;;;1.15;;
59649;SDS011;46162;57.568;25.814;2022-11-15T03:12:02;4.13;;;1.60;;
59649;SDS011;46162;57.568;25.814;2022-11-15T03:14:54;4.95;;;1.38;;
59649;SDS011;46162;57.568;25.814;2022-11-15T03:17:47;4.85;;;1.45;;
59649;SDS011;46162;57.568;25.814;2022-11-15T03:20:41;8.77;;;2.03;;
59649;SDS011;46162;57.568;25.814;2022-11-15T03:23:30;5.65;;;2.00;;
59649;SDS011;46162;57.568;25.814;2022-11-15T03:26:18;4.32;;;1.35;;
59649;SDS011;46162;57.568;25.814;2022-11-15T03:29:08;6.30;;;2.25;;
59649;SDS011;46162;57.568;25.814;2022-11-15T03:32:00;5.75;;;2.33;;
59649;SDS011;46162;57.568;25.814;2022-11-15T03:34:53;6.35;;;2.38;;
59649;SDS011;46162;57.568;25.814;2022-11-15T03:37:46;6.05;;;2.55;;
59649;SDS011;46162;57.568;25.814;2022-11-15T03:40:39;6.05;;;2.38;;
59649;SDS011;46162;57.568;25.814;2022-11-15T03:43:29;7.43;;;2.95;;
59649;SDS011;46162;57.568;25.814;2022-11-15T03:46:23;7.57;;;2.88;;
59649;SDS011;46162;57.568;25.814;2022-11-15T03:49:14;7.00;;;3.03;;
59649;SDS011;46162;57.568;25.814;2022-11-15T03:52:06;8.02;;;2.83;;
59649;SDS011;46162;57.568;25.814;2022-11-15T03:54:55;8.77;;;2.92;;
59649;SDS011;46162;57.568;25.814;2022-11-15T03:57:43;8.35;;;3.42;;
59649;SDS011;46162;57.568;25.814;2022-11-15T04:00:30;8.15;;;3.03;;
59649;SDS011;46162;57.568;25.814;2022-11-15T04:03:18;9.90;;;3.25;;
59649;SDS011;46162;57.568;25.814;2022-11-15T04:06:06;7.68;;;3.22;;
59649;SDS011;46162;57.568;25.814;2022-11-15T04:08:53;8.23;;;3.08;;
59649;SDS011;46162;57.568;25.814;2022-11-15T04:11:45;9.63;;;2.80;;
59649;SDS011;46162;57.568;25.814;2022-11-15T04:14:32;7.75;;;3.15;;
59649;SDS011;46162;57.568;25.814;2022-11-15T04:17:20;8.68;;;3.25;;
59649;SDS011;46162;57.568;25.814;2022-11-15T04:20:08;10.55;;;3.22;;
59649;SDS011;46162;57.568;25.814;2022-11-15T04:23:15;7.45;;;3.28;;
59649;SDS011;46162;57.568;25.814;2022-11-15T04:26:22;8.75;;;3.20;;
59649;SDS011;46162;57.568;25.814;2022-11-15T04:29:14;9.00;;;3.07;;
59649;SDS011;46162;57.568;25.814;2022-11-15T04:32:19;7.97;;;2.63;;
59649;SDS011;46162;57.568;25.814;2022-11-15T04:35:06;10.43;;;3.45;;
59649;SDS011;46162;57.568;25.814;2022-11-15T04:37:54;11.25;;;3.25;;
59649;SDS011;46162;57.568;25.814;2022-11-15T04:40:43;10.13;;;3.13;;
59649;SDS011;46162;57.568;25.814;2022-11-15T04:43:30;10.07;;;3.80;;
59649;SDS011;46162;57.568;25.814;2022-11-15T04:46:20;10.35;;;3.30;;
59649;SDS011;46162;57.568;25.814;2022-11-15T04:49:07;8.25;;;3.03;;
59649;SDS011;46162;57.568;25.814;2022-11-15T04:51:55;10.13;;;3.38;;
59649;SDS011;46162;57.568;25.814;2022-11-15T04:54:42;10.88;;;3.88;;
59649;SDS011;46162;57.568;25.814;2022-11-15T04:57:30;10.30;;;3.60;;
59649;SDS011;46162;57.568;25.814;2022-11-15T05:00:20;12.30;;;4.70;;
59649;SDS011;46162;57.568;25.814;2022-11-15T05:03:10;10.52;;;4.22;;
59649;SDS011;46162;57.568;25.814;2022-11-15T05:06:15;12.60;;;4.95;;
59649;SDS011;46162;57.568;25.814;2022-11-15T05:09:02;12.65;;;4.78;;
59649;SDS011;46162;57.568;25.814;2022-11-15T05:11:50;16.10;;;5.30;;
59649;SDS011;46162;57.568;25.814;2022-11-15T05:14:37;15.40;;;5.65;;
59649;SDS011;46162;57.568;25.814;2022-11-15T05:17:25;15.07;;;5.20;;
59649;SDS011;46162;57.568;25.814;2022-11-15T05:20:14;17.95;;;5.68;;
59649;SDS011;46162;57.568;25.814;2022-11-15T05:23:02;19.27;;;6.40;;
59649;SDS011;46162;57.568;25.814;2022-11-15T05:25:49;14.25;;;5.25;;
59649;SDS011;46162;57.568;25.814;2022-11-15T05:28:37;19.05;;;5.95;;
59649;SDS011;46162;57.568;25.814;2022-11-15T05:31:26;14.70;;;6.22;;
59649;SDS011;46162;57.568;25.814;2022-11-15T05:34:14;16.25;;;5.65;;
59649;SDS011;46162;57.568;25.814;2022-11-15T05:37:03;16.00;;;5.28;;
59649;SDS011;46162;57.568;25.814;2022-11-15T05:39:51;15.80;;;5.47;;
59649;SDS011;46162;57.568;25.814;2022-11-15T05:42:38;18.75;;;6.35;;
59649;SDS011;46162;57.568;25.814;2022-11-15T05:45:26;17.13;;;5.88;;
59649;SDS011;46162;57.568;25.814;2022-11-15T05:48:13;17.83;;;5.88;;
59649;SDS011;46162;57.568;25.814;2022-11-15T05:51:01;14.45;;;4.68;;
59649;SDS011;46162;57.568;25.814;2022-11-15T05:53:51;12.23;;;4.32;;
59649;SDS011;46162;57.568;25.814;2022-11-15T05:56:39;13.90;;;5.00;;
59649;SDS011;46162;57.568;25.814;2022-11-15T05:59:28;16.42;;;5.25;;
59649;SDS011;46162;57.568;25.814;2022-11-15T06:02:16;14.57;;;5.50;;
59649;SDS011;46162;57.568;25.814;2022-11-15T06:05:04;15.10;;;4.90;;
59649;SDS011;46162;57.568;25.814;2022-11-15T06:07:51;16.17;;;5.63;;
59649;SDS011;46162;57.568;25.814;2022-11-15T06:10:39;19.10;;;6.35;;
59649;SDS011;46162;57.568;25.814;2022-11-15T06:13:29;17.23;;;6.30;;
59649;SDS011;46162;57.568;25.814;2022-11-15T06:16:16;19.02;;;6.40;;
59649;SDS011;46162;57.568;25.814;2022-11-15T06:19:05;14.32;;;4.82;;
59649;SDS011;46162;57.568;25.814;2022-11-15T06:21:52;17.95;;;6.05;;
59649;SDS011;46162;57.568;25.814;2022-11-15T06:24:40;19.13;;;5.80;;
59649;SDS011;46162;57.568;25.814;2022-11-15T06:27:30;20.25;;;6.40;;
59649;SDS011;46162;57.568;25.814;2022-11-15T06:30:17;22.08;;;5.25;;
59649;SDS011;46162;57.568;25.814;2022-11-15T06:33:04;17.10;;;6.38;;
59649;SDS011;46162;57.568;25.814;2022-11-15T06:35:53;20.60;;;6.15;;
59649;SDS011;46162;57.568;25.814;2022-11-15T06:38:41;16.63;;;6.00;;
59649;SDS011;46162;57.568;25.814;2022-11-15T06:41:28;18.98;;;6.03;;
59649;SDS011;46162;57.568;25.814;2022-11-15T06:44:17;18.23;;;6.05;;
59649;SDS011;46162;57.568;25.814;2022-11-15T06:47:04;19.58;;;6.30;;
59649;SDS011;46162;57.568;25.814;2022-11-15T06:49:51;21.30;;;6.80;;
59649;SDS011;46162;57.568;25.814;2022-11-15T06:52:38;19.20;;;7.75;;
59649;SDS011;46162;57.568;25.814;2022-11-15T06:55:25;22.05;;;7.30;;
59649;SDS011;46162;57.568;25.814;2022-11-15T06:58:12;17.35;;;6.60;;
59649;SDS011;46162;57.568;25.814;2022-11-15T07:01:02;21.55;;;6.85;;
59649;SDS011;46162;57.568;25.814;2022-11-15T07:03:51;18.00;;;6.75;;
59649;SDS011;46162;57.568;25.814;2022-11-15T07:06:38;20.05;;;6.93;;
59649;SDS011;46162;57.568;25.814;2022-11-15T07:09:25;21.35;;;6.93;;
59649;SDS011;46162;57.568;25.814;2022-11-15T07:12:13;21.35;;;7.05;;
59649;SDS011;46162;57.568;25.814;2022-11-15T07:15:00;16.65;;;7.05;;
59649;SDS011;46162;57.568;25.814;2022-11-15T07:17:48;19.55;;;6.80;;
59649;SDS011;46162;57.568;25.814;2022-11-15T07:20:36;19.27;;;6.88;;
59649;SDS011;46162;57.568;25.814;2022-11-15T07:23:23;21.23;;;7.55;;
59649;SDS011;46162;57.568;25.814;2022-11-15T07:26:10;22.48;;;7.32;;
59649;SDS011;46162;57.568;25.814;2022-11-15T07:28:57;20.88;;;7.22;;
59649;SDS011;46162;57.568;25.814;2022-11-15T07:31:45;20.60;;;8.10;;
59649;SDS011;46162;57.568;25.814;2022-11-15T07:34:33;20.52;;;7.72;;
59649;SDS011;46162;57.568;25.814;2022-11-15T07:37:21;20.52;;;8.07;;
59649;SDS011;46162;57.568;25.814;2022-11-15T07:40:09;21.27;;;8.43;;
59649;SDS011;46162;57.568;25.814;2022-11-15T07:42:58;22.83;;;8.52;;
59649;SDS011;46162;57.568;25.814;2022-11-15T07:45:47;24.23;;;8.45;;
59649;SDS011;46162;57.568;25.814;2022-11-15T07:48:39;23.15;;;9.30;;
59649;SDS011;46162;57.568;25.814;2022-11-15T07:51:30;22.75;;;7.82;;
59649;SDS011;46162;57.568;25.814;2022-11-15T07:54:17;19.60;;;7.35;;
59649;SDS011;46162;57.568;25.814;2022-11-15T07:57:05;21.70;;;7.85;;
59649;SDS011;46162;57.568;25.814;2022-11-15T07:59:54;23.05;;;7.97;;
59649;SDS011;46162;57.568;25.814;2022-11-15T08:02:42;20.92;;;7.45;;
59649;SDS011;46162;57.568;25.814;2022-11-15T08:05:29;22.73;;;7.70;;
59649;SDS011;46162;57.568;25.814;2022-11-15T08:08:18;19.08;;;7.78;;
59649;SDS011;46162;57.568;25.814;2022-11-15T08:11:06;20.13;;;7.10;;
59649;SDS011;46162;57.568;25.814;2022-11-15T08:13:53;16.25;;;6.38;;
59649;SDS011;46162;57.568;25.814;2022-11-15T08:16:40;17.95;;;6.40;;
59649;SDS011;46162;57.568;25.814;2022-11-15T08:19:28;17.77;;;6.35;;
59649;SDS011;46162;57.568;25.814;2022-11-15T08:22:15;17.48;;;6.20;;
59649;SDS011;46162;57.568;25.814;2022-11-15T08:25:04;17.08;;;6.45;;
59649;SDS011;46162;57.568;25.814;2022-11-15T08:27:52;14.48;;;5.53;;
59649;SDS011;46162;57.568;25.814;2022-11-15T08:30:39;14.60;;;5.32;;
59649;SDS011;46162;57.568;25.814;2022-11-15T08:33:30;15.00;;;5.30;;
59649;SDS011;46162;57.568;25.814;2022-11-15T08:36:18;13.68;;;5.40;;
59649;SDS011;46162;57.568;25.814;2022-11-15T08:39:06;15.07;;;5.47;;
59649;SDS011;46162;57.568;25.814;2022-11-15T08:41:57;13.77;;;5.47;;
59649;SDS011;46162;57.568;25.814;2022-11-15T08:44:44;13.75;;;5.30;;
59649;SDS011;46162;57.568;25.814;2022-11-15T08:47:31;16.17;;;5.47;;
59649;SDS011;46162;57.568;25.814;2022-11-15T08:50:18;16.27;;;6.15;;
59649;SDS011;46162;57.568;25.814;2022-11-15T08:53:05;14.07;;;5.32;;
59649;SDS011;46162;57.568;25.814;2022-11-15T08:55:53;14.30;;;5.85;;
59649;SDS011;46162;57.568;25.814;2022-11-15T08:58:42;13.02;;;5.47;;
59649;SDS011;46162;57.568;25.814;2022-11-15T09:01:31;13.75;;;5.32;;
59649;SDS011;46162;57.568;25.814;2022-11-15T09:04:18;13.57;;;5.75;;
59649;SDS011;46162;57.568;25.814;2022-11-15T09:07:05;17.05;;;6.25;;
59649;SDS011;46162;57.568;25.814;2022-11-15T09:09:53;14.55;;;6.00;;
59649;SDS011;46162;57.568;25.814;2022-11-15T09:12:40;14.15;;;5.60;;
59649;SDS011;46162;57.568;25.814;2022-11-15T09:15:29;13.98;;;5.65;;
59649;SDS011;46162;57.568;25.814;2022-11-15T09:18:16;12.70;;;5.07;;
59649;SDS011;46162;57.568;25.814;2022-11-15T09:21:06;11.00;;;4.80;;
59649;SDS011;46162;57.568;25.814;2022-11-15T09:23:54;9.38;;;3.88;;
59649;SDS011;46162;57.568;25.814;2022-11-15T09:26:41;14.35;;;4.65;;
59649;SDS011;46162;57.568;25.814;2022-11-15T09:29:28;13.23;;;5.63;;
59649;SDS011;46162;57.568;25.814;2022-11-15T09:32:17;13.57;;;5.40;;
59649;SDS011;46162;57.568;25.814;2022-11-15T09:35:05;14.90;;;5.68;;
59649;SDS011;46162;57.568;25.814;2022-11-15T09:37:52;10.80;;;5.20;;
59649;SDS011;46162;57.568;25.814;2022-11-15T09:40:40;10.88;;;4.93;;
59649;SDS011;46162;57.568;25.814;2022-11-15T09:43:30;9.93;;;4.30;;
59649;SDS011;46162;57.568;25.814;2022-11-15T09:46:25;11.55;;;4.65;;
59649;SDS011;46162;57.568;25.814;2022-11-15T09:49:34;9.90;;;4.00;;
59649;SDS011;46162;57.568;25.814;2022-11-15T09:52:15;10.27;;;4.20;;
59649;SDS011;46162;57.568;25.814;2022-11-15T09:54:46;7.80;;;3.60;;
59649;SDS011;46162;57.568;25.814;2022-11-15T09:57:21;8.52;;;3.90;;
59649;SDS011;46162;57.568;25.814;2022-11-15T10:00:08;8.55;;;3.70;;
59649;SDS011;46162;57.568;25.814;2022-11-15T10:03:06;9.90;;;3.65;;
59649;SDS011;46162;57.568;25.814;2022-11-15T10:05:40;8.73;;;3.78;;
59649;SDS011;46162;57.568;25.814;2022-11-15T10:08:13;9.32;;;3.05;;
59649;SDS011;46162;57.568;25.814;2022-11-15T10:10:55;7.50;;;3.08;;
59649;SDS011;46162;57.568;25.814;2022-11-15T10:16:20;6.78;;;2.63;;
59649;SDS011;46162;57.568;25.814;2022-11-15T10:19:06;8.52;;;3.30;;
59649;SDS011;46162;57.568;25.814;2022-11-15T10:21:46;8.05;;;3.33;;
59649;SDS011;46162;57.568;25.814;2022-11-15T10:24:25;7.68;;;3.40;;
59649;SDS011;46162;57.568;25.814;2022-11-15T10:26:56;10.30;;;4.10;;
59649;SDS011;46162;57.568;25.814;2022-11-15T10:29:24;7.70;;;3.65;;
59649;SDS011;46162;57.568;25.814;2022-11-15T10:31:54;9.20;;;3.63;;
59649;SDS011;46162;57.568;25.814;2022-11-15T10:34:23;8.55;;;3.22;;
59649;SDS011;46162;57.568;25.814;2022-11-15T10:36:58;7.03;;;2.70;;
59649;SDS011;46162;57.568;25.814;2022-11-15T10:39:29;5.70;;;2.97;;
59649;SDS011;46162;57.568;25.814;2022-11-15T10:42:00;8.17;;;3.30;;
59649;SDS011;46162;57.568;25.814;2022-11-15T10:44:44;5.47;;;2.10;;
59649;SDS011;46162;57.568;25.814;2022-11-15T10:50:06;5.68;;;1.70;;
59649;SDS011;46162;57.568;25.814;2022-11-15T10:52:55;3.60;;;1.17;;
59649;SDS011;46162;57.568;25.814;2022-11-15T10:55:25;4.25;;;1.25;;
59649;SDS011;46162;57.568;25.814;2022-11-15T10:58:00;4.85;;;1.13;;
59649;SDS011;46162;57.568;25.814;2022-11-15T11:00:35;4.55;;;1.10;;
59649;SDS011;46162;57.568;25.814;2022-11-15T11:03:27;3.22;;;0.68;;
59649;SDS011;46162;57.568;25.814;2022-11-15T11:06:03;4.90;;;0.70;;
59649;SDS011;46162;57.568;25.814;2022-11-15T11:08:34;2.63;;;0.60;;
59649;SDS011;46162;57.568;25.814;2022-11-15T11:11:03;4.50;;;0.47;;
59649;SDS011;46162;57.568;25.814;2022-11-15T11:13:35;3.60;;;0.30;;
59649;SDS011;46162;57.568;25.814;2022-11-15T11:19:17;5.28;;;0.73;;
59649;SDS011;46162;57.568;25.814;2022-11-15T11:21:56;6.75;;;1.58;;
59649;SDS011;46162;57.568;25.814;2022-11-15T11:24:32;4.45;;;0.90;;
59649;SDS011;46162;57.568;25.814;2022-11-15T11:27:18;6.00;;;0.98;;
59649;SDS011;46162;57.568;25.814;2022-11-15T11:29:59;5.53;;;0.32;;
59649;SDS011;46162;57.568;25.814;2022-11-15T11:32:45;1.83;;;0.10;;
59649;SDS011;46162;57.568;25.814;2022-11-15T11:35:25;3.58;;;0.20;;
59649;SDS011;46162;57.568;25.814;2022-11-15T11:38:03;2.42;;;0.10;;
59649;SDS011;46162;57.568;25.814;2022-11-15T11:40:54;0.95;;;0.10;;
59649;SDS011;46162;57.568;25.814;2022-11-15T11:43:30;2.30;;;0.10;;
59649;SDS011;46162;57.568;25.814;2022-11-15T11:46:14;0.93;;;0.10;;
59649;SDS011;46162;57.568;25.814;2022-11-15T11:49:01;0.70;;;0.10;;
59649;SDS011;46162;57.568;25.814;2022-11-15T11:51:35;1.35;;;0.10;;
59649;SDS011;46162;57.568;25.814;2022-11-15T11:54:11;0.50;;;0.00;;
59649;SDS011;46162;57.568;25.814;2022-11-15T11:56:44;1.67;;;0.00;;
59649;SDS011;46162;57.568;25.814;2022-11-15T11:59:16;1.10;;;0.00;;
59649;SDS011;46162;57.568;25.814;2022-11-15T12:01:51;0.28;;;0.00;;
59649;SDS011;46162;57.568;25.814;2022-11-15T12:04:20;1.27;;;0.00;;
59649;SDS011;46162;57.568;25.814;2022-11-15T12:06:54;0.95;;;0.00;;
59649;SDS011;46162;57.568;25.814;2022-11-15T12:09:29;0.45;;;0.00;;
59649;SDS011;46162;57.568;25.814;2022-11-15T12:12:05;0.68;;;0.00;;
59649;SDS011;46162;57.568;25.814;2022-11-15T12:14:40;1.10;;;0.10;;
59649;SDS011;46162;57.568;25.814;2022-11-15T12:17:14;0.70;;;0.00;;
59649;SDS011;46162;57.568;25.814;2022-11-15T12:19:46;0.70;;;0.00;;
59649;SDS011;46162;57.568;25.814;2022-11-15T12:22:16;1.60;;;0.10;;
59649;SDS011;46162;57.568;25.814;2022-11-15T12:24:50;2.70;;;0.00;;
59649;SDS011;46162;57.568;25.814;2022-11-15T12:27:26;1.65;;;0.10;;
59649;SDS011;46162;57.568;25.814;2022-11-15T12:30:02;0.88;;;0.10;;
59649;SDS011;46162;57.568;25.814;2022-11-15T12:32:37;0.40;;;0.00;;
59649;SDS011;46162;57.568;25.814;2022-11-15T12:35:20;1.30;;;0.10;;
59649;SDS011;46162;57.568;25.814;2022-11-15T12:37:52;1.02;;;0.10;;
59649;SDS011;46162;57.568;25.814;2022-11-15T12:40:24;0.40;;;0.00;;
59649;SDS011;46162;57.568;25.814;2022-11-15T12:42:59;0.52;;;0.10;;
59649;SDS011;46162;57.568;25.814;2022-11-15T12:45:34;0.80;;;0.10;;
59649;SDS011;46162;57.568;25.814;2022-11-15T12:57:39;0.75;;;0.10;;
59649;SDS011;46162;57.568;25.814;2022-11-15T13:03:17;0.88;;;0.10;;
59649;SDS011;46162;57.568;25.814;2022-11-15T13:14:08;2.42;;;0.15;;
59649;SDS011;46162;57.568;25.814;2022-11-15T13:17:23;1.33;;;0.10;;
59649;SDS011;46162;57.568;25.814;2022-11-15T13:20:23;3.15;;;0.40;;
59649;SDS011;46162;57.568;25.814;2022-11-15T13:22:59;1.80;;;0.20;;
59649;SDS011;46162;57.568;25.814;2022-11-15T13:25:48;3.35;;;0.10;;
59649;SDS011;46162;57.568;25.814;2022-11-15T13:28:36;2.60;;;0.10;;
59649;SDS011;46162;57.568;25.814;2022-11-15T13:31:21;1.00;;;0.10;;
59649;SDS011;46162;57.568;25.814;2022-11-15T13:33:53;2.15;;;0.20;;
59649;SDS011;46162;57.568;25.814;2022-11-15T13:36:25;2.95;;;0.10;;
59649;SDS011;46162;57.568;25.814;2022-11-15T13:38:58;2.05;;;0.13;;
59649;SDS011;46162;57.568;25.814;2022-11-15T13:41:29;4.10;;;0.10;;
59649;SDS011;46162;57.568;25.814;2022-11-15T13:44:00;2.97;;;0.10;;
59649;SDS011;46162;57.568;25.814;2022-11-15T13:46:35;1.30;;;0.17;;
59649;SDS011;46162;57.568;25.814;2022-11-15T13:49:04;1.07;;;0.10;;
59649;SDS011;46162;57.568;25.814;2022-11-15T13:51:35;4.23;;;0.10;;
59649;SDS011;46162;57.568;25.814;2022-11-15T13:54:09;1.60;;;0.10;;
59649;SDS011;46162;57.568;25.814;2022-11-15T13:56:45;3.65;;;0.20;;
59649;SDS011;46162;57.568;25.814;2022-11-15T13:59:24;0.93;;;0.10;;
59649;SDS011;46162;57.568;25.814;2022-11-15T14:01:56;3.35;;;0.10;;
59649;SDS011;46162;57.568;25.814;2022-11-15T14:04:28;1.02;;;0.20;;
59649;SDS011;46162;57.568;25.814;2022-11-15T14:07:00;1.50;;;0.10;;
59649;SDS011;46162;57.568;25.814;2022-11-15T14:09:31;2.92;;;0.10;;
59649;SDS011;46162;57.568;25.814;2022-11-15T14:12:20;1.17;;;0.10;;
59649;SDS011;46162;57.568;25.814;2022-11-15T14:14:52;1.33;;;0.10;;
59649;SDS011;46162;57.568;25.814;2022-11-15T14:17:33;0.50;;;0.05;;
59649;SDS011;46162;57.568;25.814;2022-11-15T14:20:19;0.70;;;0.10;;
59649;SDS011;46162;57.568;25.814;2022-11-15T14:22:55;1.58;;;0.10;;
59649;SDS011;46162;57.568;25.814;2022-11-15T14:25:26;1.02;;;0.10;;
59649;SDS011;46162;57.568;25.814;2022-11-15T14:28:15;0.70;;;0.10;;
59649;SDS011;46162;57.568;25.814;2022-11-15T14:30:58;0.50;;;0.03;;
59649;SDS011;46162;57.568;25.814;2022-11-15T14:33:30;0.90;;;0.10;;
59649;SDS011;46162;57.568;25.814;2022-11-15T14:36:02;1.05;;;0.15;;
59649;SDS011;46162;57.568;25.814;2022-11-15T14:38:33;1.20;;;0.20;;
59649;SDS011;46162;57.568;25.814;2022-11-15T14:41:02;1.25;;;0.20;;
59649;SDS011;46162;57.568;25.814;2022-11-15T14:43:32;3.55;;;0.40;;
59649;SDS011;46162;57.568;25.814;2022-11-15T14:46:01;1.27;;;0.20;;
59649;SDS011;46162;57.568;25.814;2022-11-15T14:48:32;2.08;;;0.60;;
59649;SDS011;46162;57.568;25.814;2022-11-15T14:51:01;2.17;;;0.50;;
59649;SDS011;46162;57.568;25.814;2022-11-15T14:53:30;3.05;;;0.55;;
59649;SDS011;46162;57.568;25.814;2022-11-15T14:56:00;2.33;;;0.60;;
59649;SDS011;46162;57.568;25.814;2022-11-15T14:58:29;1.65;;;0.40;;
59649;SDS011;46162;57.568;25.814;2022-11-15T15:00:58;1.77;;;0.40;;
59649;SDS011;46162;57.568;25.814;2022-11-15T15:03:27;2.03;;;0.40;;
59649;SDS011;46162;57.568;25.814;2022-11-15T15:05:57;1.60;;;0.20;;
59649;SDS011;46162;57.568;25.814;2022-11-15T15:08:26;1.13;;;0.20;;
59649;SDS011;46162;57.568;25.814;2022-11-15T15:10:55;0.90;;;0.10;;
59649;SDS011;46162;57.568;25.814;2022-11-15T15:13:28;1.23;;;0.15;;
59649;SDS011;46162;57.568;25.814;2022-11-15T15:15:57;1.30;;;0.15;;
59649;SDS011;46162;57.568;25.814;2022-11-15T15:18:26;1.27;;;0.10;;
59649;SDS011;46162;57.568;25.814;2022-11-15T15:20:55;1.50;;;0.20;;
59649;SDS011;46162;57.568;25.814;2022-11-15T15:23:29;1.38;;;0.20;;
59649;SDS011;46162;57.568;25.814;2022-11-15T15:25:59;1.92;;;0.30;;
59649;SDS011;46162;57.568;25.814;2022-11-15T15:28:28;1.23;;;0.22;;
59649;SDS011;46162;57.568;25.814;2022-11-15T15:31:00;2.80;;;0.50;;
59649;SDS011;46162;57.568;25.814;2022-11-15T15:33:29;2.20;;;0.60;;
59649;SDS011;46162;57.568;25.814;2022-11-15T15:35:59;2.45;;;0.47;;
59649;SDS011;46162;57.568;25.814;2022-11-15T15:38:28;3.35;;;0.85;;
59649;SDS011;46162;57.568;25.814;2022-11-15T15:40:57;3.00;;;1.00;;
59649;SDS011;46162;57.568;25.814;2022-11-15T15:43:29;3.00;;;0.60;;
59649;SDS011;46162;57.568;25.814;2022-11-15T15:45:58;1.90;;;0.22;;
59649;SDS011;46162;57.568;25.814;2022-11-15T15:48:26;2.28;;;0.45;;
59649;SDS011;46162;57.568;25.814;2022-11-15T15:50:55;2.22;;;0.30;;
59649;SDS011;46162;57.568;25.814;2022-11-15T15:53:25;2.90;;;0.20;;
59649;SDS011;46162;57.568;25.814;2022-11-15T15:55:54;3.15;;;0.30;;
59649;SDS011;46162;57.568;25.814;2022-11-15T15:58:23;2.20;;;0.30;;
59649;SDS011;46162;57.568;25.814;2022-11-15T16:00:51;4.05;;;0.32;;
59649;SDS011;46162;57.568;25.814;2022-11-15T16:03:20;3.15;;;0.40;;
59649;SDS011;46162;57.568;25.814;2022-11-15T16:05:49;3.13;;;0.60;;
59649;SDS011;46162;57.568;25.814;2022-11-15T16:08:18;3.45;;;0.80;;
59649;SDS011;46162;57.568;25.814;2022-11-15T16:10:50;5.40;;;0.57;;
59649;SDS011;46162;57.568;25.814;2022-11-15T16:13:18;5.47;;;0.63;;
59649;SDS011;46162;57.568;25.814;2022-11-15T16:15:48;2.92;;;0.55;;
59649;SDS011;46162;57.568;25.814;2022-11-15T16:18:20;5.65;;;2.30;;
59649;SDS011;46162;57.568;25.814;2022-11-15T16:20:49;2.70;;;0.50;;
59649;SDS011;46162;57.568;25.814;2022-11-15T16:23:21;5.07;;;1.02;;
59649;SDS011;46162;57.568;25.814;2022-11-15T16:25:53;4.90;;;1.13;;
59649;SDS011;46162;57.568;25.814;2022-11-15T16:28:25;5.90;;;2.05;;
59649;SDS011;46162;57.568;25.814;2022-11-15T16:30:59;5.28;;;2.00;;
59649;SDS011;46162;57.568;25.814;2022-11-15T16:33:30;5.65;;;2.72;;
59649;SDS011;46162;57.568;25.814;2022-11-15T16:35:59;4.80;;;1.55;;
59649;SDS011;46162;57.568;25.814;2022-11-15T16:38:28;3.75;;;0.57;;
59649;SDS011;46162;57.568;25.814;2022-11-15T16:40:59;4.60;;;1.45;;
59649;SDS011;46162;57.568;25.814;2022-11-15T16:43:27;3.28;;;0.43;;